METAR / TAF

Die METAR- und TAF-Liste ist aus technischen Gründen (Verfügbarkeit, Update-Zyklen) nicht für ein Meteo-Briefing gedacht. Benutzen Sie stattdessen skybriefing der Skyguide  oder das TAMSI (MeteoSchweiz-eigene Meteo Selfbriefing-Plattform für Firmen aus der Aviatik; Anfragen über das

Kontaktformular

METAR Switzerland

METAR     LSZH 162350Z 08004KT CAVOK 04/M01 Q1011 NOSIG=
METAR     LSZH 170020Z NIL=
METAR     LSGG 162350Z AUTO 22016KT 9999 FEW031 07/02 Q1014 NOSIG=
METAR     LSGG 170020Z AUTO 22014KT 9999 FEW033 07/02 Q1014 NOSIG=
METAR     LFSB 170030Z AUTO 12003KT 090V180 9999 OVC038 01/M00
               Q1011 NOSIG=
METAR     LSZB 162350Z 13004KT CAVOK M03/M04 Q1012 NOSIG=
METAR     LSZB 170020Z VRB01KT CAVOK M02/M03 Q1012 NOSIG=
METAR     LSZA 162350Z AUTO VRB01KT 9999 FEW035 BKN040 BKN045 06/05
               Q1017 RERA=
METAR     LSZA 170020Z AUTO VRB01KT 9999 SCT038 BKN045 OVC050 05/04
               Q1017=
METAR     LSZG 162350Z AUTO 05002KT 6000 NCD M02/M02 Q1012=
METAR     LSZG 170020Z AUTO 08002KT 2800 BR NCD M02/M02 Q1012=
METAR     LSZR 162350Z AUTO 11002KT 9999 NCD M02/M02 Q1010=
METAR     LSZR 170020Z AUTO VRB01KT 9999 NCD M02/M02 Q1010=
METAR     LSGS 162350Z AUTO VRB02KT CAVOK M01/M03 Q1014=
METAR     LSGS 170020Z AUTO VRB02KT CAVOK M01/M03 Q1014=
METAR     LSGC 162350Z AUTO 23007KT 9999 BKN020 02/M01 Q1011=
METAR     LSGC 170020Z AUTO 23009KT 190V260 9999 BKN018 02/M01
               Q1011=
METAR     LSZC 162350Z AUTO 20003KT 170V250 CAVOK M00/M02 Q1012=
METAR     LSZC 170020Z AUTO 24003KT 9999 NSC M01/M02 Q1012=
METAR     LSZL 162350Z AUTO 00000KT 9999NDV FEW051 BKN075 04/M00
               Q1017 RMK=
METAR     LSZL 170020Z AUTO 13003KT 9999NDV FEW048 BKN070 BKN080
               04/M01 Q1017 RMK=
METAR     LSZS 162350Z AUTO 00000KT 9999 BKN031 M08/M11 Q1013=
METAR     LSZS 170020Z AUTO VRB01KT 9999 BKN030 M09/M11 Q1013=
METAR     LSMA 162350Z AUTO VRB02KT 9999NDV NCD M02/M02 Q1012 RMK=
METAR     LSMA 170020Z AUTO 21003KT 180V240 9999NDV FEW200 SCT240
               M02/M03 Q1012 RMK=
METAR     LSMD 162350Z NIL=
METAR     LSMD 170020Z NIL=
METAR     LSME 162350Z AUTO VRB02KT 8000NDV NCD M02/M02 Q1012 RMK=
METAR     LSME 170020Z AUTO 00000KT 9999NDV NCD M02/M03 Q1012 RMK=
METAR     LSMM 162350Z AUTO 00000KT 6000NDV NCD M05/M06 Q1012 RMK=
METAR     LSMM 170020Z AUTO VRB02KT 7000NDV NCD M06/M07 Q1012 RMK=
METAR     LSMP 162350Z AUTO 23012KT 190V250 9999NDV NCD 00/M04
               Q1012 RMK=
METAR     LSMP 170020Z AUTO 23017KT 9999NDV NCD 00/M04 Q1012 RMK=
METAR     LSMS 162350Z AUTO VRB02KT CAVOK M01/M03 Q1014=
METAR     LSMS 170020Z AUTO VRB02KT CAVOK M01/M03 Q1014=
Updated on Thursday, 17 January 2019, 01:42

TAF Switzerland

TAF     LSZH 162325Z 1700/1806 VRB03KT CAVOK TX06/1714Z TN01/1723Z
             TNM01/1806Z BECMG 1705/1708 9999 BKN060 BECMG
             1709/1712 23010KT TEMPO 1709/1718 RA PROB40 TEMPO
             1715/1718 5000 SHRA SCT030TCU TEMPO 1718/1722 4000
             SHSNRA SCT030TCU PROB40 TEMPO 1722/1801 3500 -SHSN
             BECMG 1722/1724 VRB03KT=
TAF     LSGG 162025Z 1621/1803 22010KT CAVOK TX06/1715Z TN01/1706Z
             BECMG 1702/1705 9999 BKN050 TEMPO 1707/1712 RA PROB40
             TEMPO 1714/1724 SHRA BECMG 1800/1803 05005KT FEW050=
TAF     LFSB 162300Z 1700/1724 VRB04KT CAVOK BECMG 1706/1708
             25010KT BKN030 BECMG 1708/1710 25015G30KT PROB40
             TEMPO 1709/1712 -RA PROB40 TEMPO 1714/1724 SHRA
             FEW030TCU=
TAF     LSZL 161725Z 1618/1703 VRB03KT 9999 BKN060 BKN069=
TAF RRA LSMA 161625Z 1617/1723 VRB03KT CAVOK BECMG 1707/1709 9999
             BKN060 TEMPO 1712/1718 RA PROB30 TEMPO 1715/1723
             20010KT PROB40 TEMPO 1716/1723 SHRA SCT030TCU PROB30
             TEMPO 1720/1723 SHSN=
TAF     LSMD 161625Z 1617/1723 VRB03KT CAVOK BECMG 1705/1707 9999
             BKN060 BECMG 1709/1712 23008KT TEMPO 1709/1715 RA
             PROB40 TEMPO 1715/1723 SHRA SCT030TCU PROB30 TEMPO
             1720/1723 SHSN=
TAF     LSME 161625Z 1617/1723 VRB03KT CAVOK BECMG 1705/1708 9999
             BKN040 PROB30 TEMPO 1709/1712 24010KT TEMPO 1710/1717
             RA PROB40 TEMPO 1715/1723 SHRA SCT030TCU PROB30 TEMPO
             1720/1723 SHSN=
TAF     LSMM 161625Z 1617/1723 VRB03KT CAVOK BECMG 1704/1707 9999
             OVC075 BECMG 1710/1713 3000 SN OVC010 PROB30 TEMPO
             1711/1716 SNRA=
TAF     LSMP 161625Z 1617/1723 VRB03KT CAVOK BECMG 1620/1622
             22010KT BECMG 1702/1705 9999 BKN030 TEMPO 1707/1712
             RA=
Updated on Thursday, 17 January 2019, 01:38